createdAt,value
2024-04-14T00:00:29.841Z,72.93
2024-04-14T00:01:02.957Z,72.92
2024-04-14T00:01:33.789Z,72.82
2024-04-14T00:02:04.671Z,72.84
2024-04-14T00:02:35.467Z,72.85
2024-04-14T00:03:06.253Z,72.86
2024-04-14T00:03:37.115Z,72.69
2024-04-14T00:04:08.785Z,72.70
2024-04-14T00:04:39.915Z,72.62
2024-04-14T00:05:11.001Z,72.47
2024-04-14T00:05:42.851Z,72.43
2024-04-14T00:06:13.975Z,72.27
2024-04-14T00:06:44.790Z,72.21
2024-04-14T00:07:17.032Z,72.30
2024-04-14T00:07:47.839Z,72.22
2024-04-14T00:08:18.628Z,72.07
2024-04-14T00:08:50.876Z,71.97
2024-04-14T00:09:21.712Z,71.93
2024-04-14T00:09:52.706Z,71.89
2024-04-14T00:10:23.615Z,71.84
2024-04-14T00:10:54.761Z,71.80
2024-04-14T00:11:25.611Z,71.84
2024-04-14T00:11:56.441Z,71.84
2024-04-14T00:12:27.264Z,71.88
2024-04-14T00:12:58.114Z,71.89
2024-04-14T00:13:28.905Z,71.90
2024-04-14T00:13:59.698Z,71.91
2024-04-14T00:14:30.480Z,72.02
2024-04-14T00:15:01.284Z,72.09
2024-04-14T00:15:32.088Z,72.23
2024-04-14T00:16:03.574Z,72.27
2024-04-14T00:16:34.444Z,72.27
2024-04-14T00:17:05.243Z,72.34
2024-04-14T00:17:36.763Z,72.41
2024-04-14T00:18:08.292Z,72.49
2024-04-14T00:18:39.505Z,72.53
2024-04-14T00:19:11.051Z,72.54
2024-04-14T00:19:42.234Z,72.47
2024-04-14T00:20:13.481Z,72.45
2024-04-14T00:20:44.986Z,72.40
2024-04-14T00:21:15.779Z,72.41
2024-04-14T00:21:46.785Z,72.33
2024-04-14T00:22:17.596Z,72.17
2024-04-14T00:22:48.386Z,72.10
2024-04-14T00:23:19.185Z,72.08
2024-04-14T00:23:50.568Z,72.08
2024-04-14T00:24:21.370Z,72.03
2024-04-14T00:24:52.201Z,71.93
2024-04-14T00:25:23.063Z,71.90
2024-04-14T00:25:53.859Z,71.84
2024-04-14T00:26:24.669Z,71.77
2024-04-14T00:26:55.462Z,71.72
2024-04-14T00:27:26.330Z,71.67
2024-04-14T00:27:57.244Z,71.54
2024-04-14T00:28:28.082Z,71.42
2024-04-14T00:28:58.877Z,71.37
2024-04-14T00:29:29.669Z,71.33
2024-04-14T00:30:00.502Z,71.25
2024-04-14T00:30:31.401Z,71.16
2024-04-14T00:31:02.429Z,71.10
2024-04-14T00:31:33.264Z,71.00
2024-04-14T00:32:04.078Z,70.93
2024-04-14T00:32:34.974Z,70.91
2024-04-14T00:33:05.882Z,70.88
2024-04-14T00:33:36.798Z,70.80
2024-04-14T00:34:10.453Z,70.72
2024-04-14T00:34:41.852Z,70.58
2024-04-14T00:35:12.702Z,70.55
2024-04-14T00:35:43.641Z,71.00
2024-04-14T00:36:14.428Z,71.62
2024-04-14T00:36:45.232Z,71.62
2024-04-14T00:37:16.031Z,71.51
2024-04-14T00:37:46.832Z,71.47
2024-04-14T00:38:17.657Z,71.52
2024-04-14T00:38:48.458Z,71.52
2024-04-14T00:39:19.260Z,71.67
2024-04-14T00:39:50.113Z,71.78
2024-04-14T00:40:21.095Z,71.78
2024-04-14T00:40:51.900Z,71.71
2024-04-14T00:41:22.704Z,71.58
2024-04-14T00:41:53.505Z,71.53
2024-04-14T00:42:24.297Z,71.47
2024-04-14T00:42:57.987Z,71.47
2024-04-14T00:43:28.815Z,71.61
2024-04-14T00:43:59.639Z,71.65
2024-04-14T00:44:30.435Z,71.67
2024-04-14T00:45:01.269Z,71.63
2024-04-14T00:45:32.118Z,71.72
2024-04-14T00:46:03.043Z,71.67
2024-04-14T00:46:33.863Z,71.54
2024-04-14T00:47:04.716Z,71.52
2024-04-14T00:47:35.555Z,71.66
2024-04-14T00:48:06.860Z,71.86
2024-04-14T00:48:37.743Z,71.93
2024-04-14T00:49:09.682Z,71.91
2024-04-14T00:49:40.859Z,71.89
2024-04-14T00:50:11.640Z,71.92
2024-04-14T00:50:42.978Z,71.94
2024-04-14T00:51:13.769Z,71.95
2024-04-14T00:51:44.624Z,71.95
2024-04-14T00:52:15.444Z,72.06
2024-04-14T00:52:47.153Z,71.98
2024-04-14T00:53:17.977Z,71.86
2024-04-14T00:53:48.807Z,71.86
2024-04-14T00:54:19.706Z,71.85
2024-04-14T00:54:50.623Z,71.95
2024-04-14T00:55:21.430Z,71.99
2024-04-14T00:55:52.225Z,72.00
2024-04-14T00:56:23.470Z,72.04
2024-04-14T00:56:54.255Z,72.15
2024-04-14T00:57:25.089Z,72.23
2024-04-14T00:57:57.722Z,72.21
2024-04-14T00:58:28.546Z,72.28
2024-04-14T00:58:59.379Z,72.42
2024-04-14T00:59:30.168Z,72.55
2024-04-14T01:00:01.618Z,72.58
2024-04-14T01:00:33.220Z,72.65
2024-04-14T01:01:04.228Z,72.68
2024-04-14T01:01:36.315Z,72.63
2024-04-14T01:02:07.700Z,72.57
2024-04-14T01:02:38.652Z,72.50
2024-04-14T01:03:09.463Z,72.53
2024-04-14T01:03:40.801Z,72.56
2024-04-14T01:04:11.817Z,72.63
2024-04-14T01:04:42.792Z,72.79
2024-04-14T01:05:13.667Z,72.86
2024-04-14T01:05:44.479Z,72.96
2024-04-14T01:06:15.309Z,73.07
2024-04-14T01:06:46.548Z,73.05
2024-04-14T01:07:17.364Z,73.20
2024-04-14T01:07:48.736Z,73.22
2024-04-14T01:08:19.528Z,73.29
2024-04-14T01:08:50.309Z,73.23
2024-04-14T01:09:21.128Z,73.06
2024-04-14T01:09:51.969Z,73.09
2024-04-14T01:10:22.910Z,73.30
2024-04-14T01:10:53.765Z,73.45
2024-04-14T01:11:24.577Z,73.50
2024-04-14T01:11:55.359Z,73.42
2024-04-14T01:12:26.232Z,73.36
2024-04-14T01:12:57.127Z,73.43
2024-04-14T01:13:27.969Z,73.57
2024-04-14T01:13:59.256Z,73.56
2024-04-14T01:14:30.045Z,73.54
2024-04-14T01:15:01.696Z,73.55
2024-04-14T01:15:32.521Z,73.51
2024-04-14T01:16:03.703Z,73.57
2024-04-14T01:16:36.461Z,73.66
2024-04-14T01:17:07.297Z,73.77
2024-04-14T01:17:38.294Z,73.82
2024-04-14T01:18:09.430Z,73.78
2024-04-14T01:18:40.316Z,73.84
2024-04-14T01:19:11.142Z,73.84
2024-04-14T01:19:42.074Z,73.96
2024-04-14T01:20:13.165Z,74.09
2024-04-14T01:20:43.963Z,74.13
2024-04-14T01:21:14.757Z,74.14
2024-04-14T01:21:45.557Z,74.08
2024-04-14T01:22:16.363Z,74.04
2024-04-14T01:22:47.178Z,74.07
2024-04-14T01:23:18.126Z,74.12
2024-04-14T01:23:49.089Z,74.16
2024-04-14T01:24:19.874Z,74.15
2024-04-14T01:24:50.855Z,74.10
2024-04-14T01:25:22.464Z,74.15
2024-04-14T01:25:55.222Z,74.13
2024-04-14T01:26:26.032Z,74.12
2024-04-14T01:26:56.835Z,74.18
2024-04-14T01:27:27.648Z,74.22
2024-04-14T01:27:58.543Z,74.21
2024-04-14T01:28:29.331Z,74.25
2024-04-14T01:29:00.118Z,74.20
2024-04-14T01:29:31.378Z,74.23
2024-04-14T01:30:05.178Z,74.34
2024-04-14T01:30:35.980Z,74.39
2024-04-14T01:31:06.790Z,74.48
2024-04-14T01:31:37.572Z,74.58
2024-04-14T01:32:08.470Z,74.66
2024-04-14T01:32:39.428Z,74.80
2024-04-14T01:33:10.278Z,74.86
2024-04-14T01:33:41.115Z,74.96
2024-04-14T01:34:14.308Z,74.97
2024-04-14T01:34:45.094Z,74.98
2024-04-14T01:35:15.901Z,75.02
2024-04-14T01:35:46.746Z,75.05
2024-04-14T01:36:17.544Z,75.12
2024-04-14T01:36:48.350Z,75.20
2024-04-14T01:37:19.163Z,75.24
2024-04-14T01:37:51.107Z,75.34
2024-04-14T01:38:26.537Z,75.29
2024-04-14T01:38:57.744Z,75.02
2024-04-14T01:39:28.546Z,74.97
2024-04-14T01:39:59.516Z,75.36
2024-04-14T01:40:30.341Z,75.52
2024-04-14T01:41:01.476Z,75.56
2024-04-14T01:41:32.446Z,75.57
2024-04-14T01:42:03.567Z,75.53
2024-04-14T01:42:34.415Z,75.49
2024-04-14T01:43:05.820Z,75.61
2024-04-14T01:43:36.618Z,75.72
2024-04-14T01:44:07.419Z,75.90
2024-04-14T01:44:38.216Z,75.82
2024-04-14T01:45:09.849Z,75.69
2024-04-14T01:45:40.700Z,75.72
2024-04-14T01:46:11.506Z,75.72
2024-04-14T01:46:42.296Z,75.69
2024-04-14T01:47:13.096Z,75.70
2024-04-14T01:47:43.979Z,75.80
2024-04-14T01:48:14.902Z,75.89
2024-04-14T01:48:45.891Z,75.94
2024-04-14T01:49:16.875Z,76.02
2024-04-14T01:49:47.689Z,76.13
2024-04-14T01:50:18.509Z,76.17
2024-04-14T01:50:49.337Z,76.02
2024-04-14T01:51:20.658Z,76.11
2024-04-14T01:51:51.484Z,76.27
2024-04-14T01:52:23.634Z,76.32
2024-04-14T01:52:56.155Z,76.35
2024-04-14T01:53:26.944Z,76.48
2024-04-14T01:53:57.874Z,76.60
2024-04-14T01:54:28.667Z,76.68
2024-04-14T01:54:59.510Z,76.76
2024-04-14T01:55:30.327Z,76.78
2024-04-14T01:56:01.194Z,76.74
2024-04-14T01:56:32.001Z,76.75
2024-04-14T01:57:02.833Z,76.72
2024-04-14T01:57:34.158Z,76.80
2024-04-14T01:58:05.021Z,76.86
2024-04-14T01:58:35.842Z,76.98
2024-04-14T01:59:06.663Z,77.01
2024-04-14T01:59:38.040Z,76.64
2024-04-14T02:00:08.862Z,76.47
2024-04-14T02:00:39.822Z,76.81
2024-04-14T02:01:10.798Z,76.92
2024-04-14T02:01:41.635Z,77.10
2024-04-14T02:02:12.444Z,77.23
2024-04-14T02:02:43.393Z,77.25
2024-04-14T02:03:14.336Z,77.15
2024-04-14T02:03:45.295Z,77.12
2024-04-14T02:04:16.355Z,77.13
2024-04-14T02:04:47.368Z,77.26
2024-04-14T02:05:18.292Z,77.37
2024-04-14T02:05:58.699Z,77.32
2024-04-14T02:06:29.535Z,77.28
2024-04-14T02:07:00.381Z,77.44
2024-04-14T02:07:31.277Z,77.61
2024-04-14T02:08:02.090Z,77.73
2024-04-14T02:08:32.895Z,77.72
2024-04-14T02:09:03.689Z,77.75
2024-04-14T02:09:34.505Z,77.86
2024-04-14T02:10:05.560Z,77.99
2024-04-14T02:10:41.030Z,78.07
2024-04-14T02:11:11.851Z,78.04
2024-04-14T02:11:42.649Z,78.13
2024-04-14T02:12:13.439Z,78.20
2024-04-14T02:12:44.269Z,78.25
2024-04-14T02:13:15.092Z,78.41
2024-04-14T02:13:45.916Z,78.52
2024-04-14T02:14:16.769Z,78.60
2024-04-14T02:14:47.562Z,78.62
2024-04-14T02:15:18.354Z,78.64
2024-04-14T02:15:49.180Z,78.63
2024-04-14T02:16:20.013Z,78.67
2024-04-14T02:16:50.842Z,78.79
2024-04-14T02:17:22.338Z,78.80
2024-04-14T02:17:53.313Z,78.80
2024-04-14T02:18:24.230Z,78.78
2024-04-14T02:18:55.122Z,78.78
2024-04-14T02:19:25.912Z,78.81
2024-04-14T02:19:56.700Z,78.95
2024-04-14T02:20:27.510Z,78.99
2024-04-14T02:20:58.302Z,78.99
2024-04-14T02:21:29.140Z,78.99
2024-04-14T02:21:59.995Z,78.93
2024-04-14T02:22:30.827Z,78.98
2024-04-14T02:23:01.627Z,78.97
2024-04-14T02:23:32.449Z,78.96
2024-04-14T02:24:03.410Z,78.89
2024-04-14T02:24:34.253Z,78.94
2024-04-14T02:25:05.119Z,79.01
2024-04-14T02:25:35.954Z,79.02
2024-04-14T02:26:06.932Z,78.92
2024-04-14T02:26:37.731Z,78.90
2024-04-14T02:27:08.527Z,78.94
2024-04-14T02:27:39.359Z,79.06
2024-04-14T02:28:10.178Z,79.22
2024-04-14T02:28:40.983Z,79.28
2024-04-14T02:29:11.792Z,79.24
2024-04-14T02:29:42.578Z,79.24
2024-04-14T02:30:13.370Z,79.25
2024-04-14T02:30:44.190Z,79.23
2024-04-14T02:31:14.991Z,79.23
2024-04-14T02:31:45.784Z,79.19
2024-04-14T02:32:16.620Z,79.23
2024-04-14T02:32:47.468Z,79.16
2024-04-14T02:33:18.269Z,79.17
2024-04-14T02:33:49.103Z,79.15
2024-04-14T02:34:19.921Z,79.12
2024-04-14T02:34:50.722Z,79.15
2024-04-14T02:35:21.522Z,79.15
2024-04-14T02:35:59.321Z,79.16
2024-04-14T02:36:30.130Z,79.17
2024-04-14T02:37:00.974Z,79.18
2024-04-14T02:37:31.790Z,79.18
2024-04-14T02:38:02.603Z,79.16
2024-04-14T02:38:33.393Z,79.15
2024-04-14T02:39:05.005Z,79.20
2024-04-14T02:39:35.846Z,79.20
2024-04-14T02:40:07.695Z,79.16
2024-04-14T02:40:38.490Z,79.13
2024-04-14T02:41:09.316Z,79.09
2024-04-14T02:41:40.118Z,79.09
2024-04-14T02:42:10.926Z,79.05
2024-04-14T02:42:41.760Z,78.95
2024-04-14T02:43:13.659Z,78.93
2024-04-14T02:43:45.262Z,78.91
2024-04-14T02:44:17.106Z,78.85
2024-04-14T02:44:47.915Z,78.77
2024-04-14T02:45:18.707Z,78.78
2024-04-14T02:45:49.580Z,78.71
2024-04-14T02:46:20.479Z,78.68
2024-04-14T02:46:51.283Z,78.66
2024-04-14T02:47:22.080Z,78.59
2024-04-14T02:47:53.331Z,78.61
2024-04-14T02:48:24.412Z,78.59
2024-04-14T02:48:55.342Z,78.61
2024-04-14T02:49:28.606Z,78.68
2024-04-14T02:49:59.390Z,78.58
2024-04-14T02:50:30.190Z,78.50
2024-04-14T02:51:01.051Z,78.55
2024-04-14T02:51:31.859Z,78.52
2024-04-14T02:52:02.881Z,78.62
2024-04-14T02:52:33.706Z,78.59
2024-04-14T02:53:04.932Z,78.82
2024-04-14T02:53:35.734Z,78.98
2024-04-14T02:54:06.519Z,78.95
2024-04-14T02:54:37.338Z,78.85
2024-04-14T02:55:08.161Z,78.82
2024-04-14T02:55:39.150Z,78.84
2024-04-14T02:56:09.942Z,78.79
2024-04-14T02:56:40.755Z,78.72
2024-04-14T02:57:11.713Z,78.66
2024-04-14T02:57:45.984Z,78.61
2024-04-14T02:58:17.322Z,78.61
2024-04-14T02:58:48.109Z,78.60
2024-04-14T02:59:18.973Z,78.58
2024-04-14T02:59:49.811Z,78.63
2024-04-14T03:00:20.595Z,78.71
2024-04-14T03:01:03.913Z,78.73
2024-04-14T03:01:34.978Z,78.86
2024-04-14T03:02:05.819Z,78.89
2024-04-14T03:02:37.445Z,79.00
2024-04-14T03:03:08.302Z,79.21
2024-04-14T03:03:39.552Z,79.11
2024-04-14T03:04:10.439Z,79.05
2024-04-14T03:04:41.358Z,79.05
2024-04-14T03:05:12.163Z,79.14
2024-04-14T03:05:42.965Z,79.45
2024-04-14T03:06:14.751Z,79.64
2024-04-14T03:06:45.641Z,79.65
2024-04-14T03:07:16.459Z,79.60
2024-04-14T03:07:47.268Z,79.62
2024-04-14T03:08:18.798Z,79.66
2024-04-14T03:08:49.628Z,79.75
2024-04-14T03:09:20.428Z,79.72
2024-04-14T03:09:53.009Z,79.88
2024-04-14T03:10:23.916Z,80.05
2024-04-14T03:10:55.090Z,80.03
2024-04-14T03:11:26.045Z,80.02
2024-04-14T03:11:56.881Z,80.05
2024-04-14T03:12:27.682Z,80.12
2024-04-14T03:12:58.534Z,80.17
2024-04-14T03:13:29.488Z,80.16
2024-04-14T03:14:00.283Z,80.19
2024-04-14T03:14:31.073Z,80.25
2024-04-14T03:15:01.876Z,80.27
2024-04-14T03:15:32.735Z,80.26
2024-04-14T03:16:04.113Z,80.27
2024-04-14T03:16:35.075Z,80.27
2024-04-14T03:17:05.892Z,80.27
2024-04-14T03:17:36.742Z,80.26
2024-04-14T03:18:07.566Z,80.28
2024-04-14T03:18:38.783Z,80.26
2024-04-14T03:19:09.847Z,80.25
2024-04-14T03:19:40.645Z,80.24
2024-04-14T03:20:11.578Z,80.17
2024-04-14T03:20:42.555Z,80.10
2024-04-14T03:21:13.494Z,80.13
2024-04-14T03:21:46.182Z,80.10
2024-04-14T03:22:17.052Z,80.10
2024-04-14T03:22:47.849Z,80.10
2024-04-14T03:23:18.645Z,80.08
2024-04-14T03:23:49.466Z,80.09
2024-04-14T03:24:20.260Z,80.03
2024-04-14T03:24:51.142Z,79.99
2024-04-14T03:25:21.952Z,79.92
2024-04-14T03:25:52.775Z,79.85
2024-04-14T03:26:23.572Z,79.80
2024-04-14T03:26:58.281Z,79.83
2024-04-14T03:27:29.066Z,79.81
2024-04-14T03:27:59.906Z,79.79
2024-04-14T03:28:30.692Z,79.81
2024-04-14T03:29:01.486Z,79.81
2024-04-14T03:29:32.291Z,79.82
2024-04-14T03:30:03.223Z,79.83
2024-04-14T03:30:34.074Z,79.74
2024-04-14T03:31:05.022Z,79.71
2024-04-14T03:31:35.890Z,79.73
2024-04-14T03:32:06.888Z,79.72
2024-04-14T03:32:40.118Z,79.75
2024-04-14T03:33:10.960Z,79.73
2024-04-14T03:33:41.771Z,79.71
2024-04-14T03:34:12.575Z,79.72
2024-04-14T03:34:43.369Z,79.75
2024-04-14T03:35:14.167Z,79.79
2024-04-14T03:35:45.278Z,79.75
2024-04-14T03:36:16.085Z,79.64
2024-04-14T03:36:46.897Z,79.56
2024-04-14T03:37:17.697Z,79.60
2024-04-14T03:37:49.817Z,79.61
2024-04-14T03:38:20.614Z,79.58
2024-04-14T03:38:51.873Z,79.50
2024-04-14T03:39:22.684Z,79.47
2024-04-14T03:39:53.515Z,79.47
2024-04-14T03:40:24.351Z,79.37
2024-04-14T03:40:55.160Z,79.36
2024-04-14T03:41:25.970Z,79.38
2024-04-14T03:41:56.765Z,79.42
2024-04-14T03:42:27.596Z,79.37
2024-04-14T03:42:58.523Z,79.33
2024-04-14T03:43:29.422Z,79.28
2024-04-14T03:44:00.288Z,79.24
2024-04-14T03:44:31.128Z,79.07
2024-04-14T03:45:08.092Z,78.97
2024-04-14T03:45:42.697Z,78.81
2024-04-14T03:46:13.517Z,78.84
2024-04-14T03:46:44.434Z,78.76
2024-04-14T03:47:15.233Z,78.62
2024-04-14T03:47:46.099Z,78.84
2024-04-14T03:48:17.082Z,78.92
2024-04-14T03:48:48.109Z,79.07
2024-04-14T03:49:19.131Z,79.18
2024-04-14T03:49:49.980Z,79.12
2024-04-14T03:50:20.773Z,79.11
2024-04-14T03:50:51.577Z,79.15
2024-04-14T03:51:22.380Z,79.18
2024-04-14T03:51:53.218Z,79.23
2024-04-14T03:52:24.066Z,79.26
2024-04-14T03:52:54.857Z,79.35
2024-04-14T03:53:25.646Z,79.42
2024-04-14T03:53:56.440Z,79.45
2024-04-14T03:54:27.285Z,79.51
2024-04-14T03:54:58.115Z,79.36
2024-04-14T03:55:28.931Z,79.35
2024-04-14T03:55:59.800Z,79.44
2024-04-14T03:56:30.590Z,79.46
2024-04-14T03:57:02.875Z,79.48
2024-04-14T03:57:33.703Z,79.44
2024-04-14T03:58:04.561Z,79.37
2024-04-14T03:58:35.444Z,79.39
2024-04-14T03:59:06.318Z,79.41
2024-04-14T03:59:37.324Z,79.40
2024-04-14T04:00:08.453Z,79.30
2024-04-14T04:00:39.536Z,79.18
2024-04-14T04:01:10.551Z,79.18
2024-04-14T04:01:41.448Z,79.20
2024-04-14T04:02:12.371Z,79.13
2024-04-14T04:02:43.308Z,78.91
2024-04-14T04:03:14.123Z,78.83
2024-04-14T04:03:44.999Z,78.78
2024-04-14T04:04:15.978Z,78.77
2024-04-14T04:04:46.859Z,78.83
2024-04-14T04:05:17.737Z,78.79
2024-04-14T04:05:57.298Z,78.70
2024-04-14T04:06:28.146Z,78.81
2024-04-14T04:06:59.005Z,78.99
2024-04-14T04:07:30.171Z,79.01
2024-04-14T04:08:05.250Z,79.03
2024-04-14T04:08:37.533Z,79.02
2024-04-14T04:09:08.324Z,79.01
2024-04-14T04:09:39.119Z,78.96
2024-04-14T04:10:09.907Z,79.00
2024-04-14T04:10:40.738Z,78.99
2024-04-14T04:11:11.598Z,78.86
2024-04-14T04:11:42.407Z,78.95
2024-04-14T04:12:13.198Z,78.98
2024-04-14T04:12:44.042Z,79.00
2024-04-14T04:13:14.859Z,78.99
2024-04-14T04:13:45.716Z,78.89
2024-04-14T04:14:16.516Z,78.85
2024-04-14T04:14:47.310Z,78.95
2024-04-14T04:15:18.214Z,78.84
2024-04-14T04:16:01.855Z,78.74
2024-04-14T04:16:32.722Z,78.62
2024-04-14T04:17:03.574Z,78.57
2024-04-14T04:17:34.491Z,78.49
2024-04-14T04:18:05.487Z,78.53
2024-04-14T04:18:36.823Z,78.68
2024-04-14T04:19:14.801Z,78.40
2024-04-14T04:19:52.510Z,78.42
2024-04-14T04:20:23.315Z,78.60
2024-04-14T04:20:54.306Z,78.62
2024-04-14T04:21:25.137Z,78.72
2024-04-14T04:21:56.060Z,78.80
2024-04-14T04:22:27.260Z,78.82
2024-04-14T04:22:58.048Z,78.87
2024-04-14T04:23:28.867Z,78.88
2024-04-14T04:23:59.667Z,78.85
2024-04-14T04:24:30.480Z,78.89
2024-04-14T04:25:01.408Z,78.84
2024-04-14T04:25:32.277Z,78.80
2024-04-14T04:26:03.143Z,78.82
2024-04-14T04:26:33.940Z,78.86
2024-04-14T04:27:04.910Z,78.96
2024-04-14T04:27:35.741Z,79.00
2024-04-14T04:28:06.558Z,78.97
2024-04-14T04:28:37.345Z,78.90
2024-04-14T04:29:08.140Z,78.94
2024-04-14T04:29:39.016Z,78.90
2024-04-14T04:30:10.392Z,78.80
2024-04-14T04:30:41.236Z,78.85
2024-04-14T04:31:15.010Z,78.82
2024-04-14T04:31:45.878Z,78.82
2024-04-14T04:32:17.875Z,78.93
2024-04-14T04:32:48.838Z,79.05
2024-04-14T04:33:20.111Z,79.10
2024-04-14T04:33:51.046Z,79.11
2024-04-14T04:34:22.408Z,79.10
2024-04-14T04:34:53.259Z,79.12
2024-04-14T04:35:24.066Z,79.12
2024-04-14T04:35:55.536Z,79.17
2024-04-14T04:36:26.372Z,79.15
2024-04-14T04:36:57.220Z,79.18
2024-04-14T04:37:28.010Z,79.20
2024-04-14T04:37:58.817Z,79.18
2024-04-14T04:38:29.627Z,79.10
2024-04-14T04:39:02.757Z,79.04
2024-04-14T04:39:33.664Z,79.02
2024-04-14T04:40:04.671Z,78.97
2024-04-14T04:40:35.523Z,78.91
2024-04-14T04:41:07.572Z,78.89
2024-04-14T04:41:38.384Z,78.86
2024-04-14T04:42:09.187Z,78.85
2024-04-14T04:42:40.019Z,78.79
2024-04-14T04:43:10.821Z,78.73
2024-04-14T04:43:42.453Z,78.69
2024-04-14T04:44:13.353Z,78.64
2024-04-14T04:44:46.040Z,78.61
2024-04-14T04:45:16.882Z,78.55
2024-04-14T04:45:47.721Z,78.48
2024-04-14T04:46:18.521Z,78.49
2024-04-14T04:46:49.338Z,78.48
2024-04-14T04:47:20.144Z,78.41
2024-04-14T04:47:51.047Z,78.36
2024-04-14T04:48:22.898Z,78.40
2024-04-14T04:48:56.498Z,78.33
2024-04-14T04:49:27.393Z,78.24
2024-04-14T04:49:58.285Z,78.18
2024-04-14T04:50:29.150Z,78.12
2024-04-14T04:50:59.944Z,78.07
2024-04-14T04:51:30.778Z,78.12
2024-04-14T04:52:01.649Z,78.02
2024-04-14T04:52:32.516Z,77.91
2024-04-14T04:53:03.308Z,77.84
2024-04-14T04:53:34.114Z,77.76
2024-04-14T04:54:05.318Z,77.72
2024-04-14T04:54:36.169Z,77.67
2024-04-14T04:55:06.991Z,77.55
2024-04-14T04:55:37.814Z,77.47
2024-04-14T04:56:08.608Z,77.44
2024-04-14T04:56:39.404Z,77.53
2024-04-14T04:57:10.267Z,77.51
2024-04-14T04:57:41.143Z,77.44
2024-04-14T04:58:11.979Z,77.42
2024-04-14T04:58:42.773Z,77.28
2024-04-14T04:59:13.577Z,77.22
2024-04-14T04:59:44.360Z,77.14
2024-04-14T05:00:15.438Z,77.06
2024-04-14T05:00:59.013Z,77.01
2024-04-14T05:01:30.118Z,76.86
2024-04-14T05:02:01.001Z,76.75
2024-04-14T05:02:31.820Z,76.55
2024-04-14T05:03:02.612Z,76.38
2024-04-14T05:03:33.629Z,76.18
2024-04-14T05:04:04.910Z,76.01
2024-04-14T05:04:35.740Z,76.01
2024-04-14T05:05:06.585Z,75.91
2024-04-14T05:05:37.468Z,75.78
2024-04-14T05:06:08.264Z,75.68
2024-04-14T05:06:39.048Z,75.61
2024-04-14T05:07:09.888Z,75.52
2024-04-14T05:07:40.713Z,75.40
2024-04-14T05:08:11.511Z,75.30
2024-04-14T05:08:42.312Z,75.19
2024-04-14T05:09:13.197Z,75.09
2024-04-14T05:09:43.987Z,75.04
2024-04-14T05:10:14.782Z,74.96
2024-04-14T05:10:45.604Z,74.95
2024-04-14T05:11:16.509Z,74.82
2024-04-14T05:11:47.346Z,74.63
2024-04-14T05:12:18.137Z,74.53
2024-04-14T05:12:48.991Z,74.46
2024-04-14T05:13:19.969Z,74.50
2024-04-14T05:13:50.748Z,74.45
2024-04-14T05:14:23.084Z,74.24
2024-04-14T05:14:53.883Z,74.09
2024-04-14T05:15:24.695Z,74.02
2024-04-14T05:15:55.666Z,73.90
2024-04-14T05:16:26.513Z,73.81
2024-04-14T05:16:57.309Z,73.70
2024-04-14T05:17:28.203Z,73.67
2024-04-14T05:17:59.149Z,73.60
2024-04-14T05:18:30.207Z,73.51
2024-04-14T05:19:01.149Z,73.39
2024-04-14T05:19:32.077Z,73.34
2024-04-14T05:20:03.021Z,73.26
2024-04-14T05:20:33.812Z,73.19
2024-04-14T05:21:05.055Z,73.17
2024-04-14T05:21:35.866Z,73.03
2024-04-14T05:22:06.823Z,72.84
2024-04-14T05:22:37.663Z,72.77
2024-04-14T05:23:08.471Z,72.76
2024-04-14T05:23:39.267Z,72.79
2024-04-14T05:24:11.476Z,72.76
2024-04-14T05:24:42.289Z,72.56
2024-04-14T05:25:13.166Z,72.50
2024-04-14T05:25:48.163Z,72.38
2024-04-14T05:26:18.965Z,72.37
2024-04-14T05:26:49.762Z,72.21
2024-04-14T05:27:20.595Z,72.01
2024-04-14T05:27:51.437Z,72.00
2024-04-14T05:28:22.236Z,71.85
2024-04-14T05:28:53.026Z,71.85
2024-04-14T05:29:25.894Z,71.75
2024-04-14T05:29:56.690Z,71.58
2024-04-14T05:30:27.779Z,71.47
2024-04-14T05:30:58.747Z,71.23
2024-04-14T05:31:29.601Z,71.19
2024-04-14T05:32:00.428Z,70.94
2024-04-14T05:32:31.358Z,70.86
2024-04-14T05:33:02.230Z,70.90
2024-04-14T05:33:33.085Z,70.83
2024-04-14T05:34:03.920Z,70.75
2024-04-14T05:34:34.728Z,70.66
2024-04-14T05:35:05.529Z,70.57
2024-04-14T05:35:36.313Z,70.58
2024-04-14T05:36:07.142Z,70.53
2024-04-14T05:36:37.992Z,70.47
2024-04-14T05:37:08.868Z,70.23
2024-04-14T05:37:39.896Z,70.13
2024-04-14T05:38:10.699Z,70.11
2024-04-14T05:38:41.673Z,70.09
2024-04-14T05:39:12.484Z,70.15
2024-04-14T05:39:43.279Z,70.05
2024-04-14T05:40:14.090Z,69.98
2024-04-14T05:40:44.882Z,69.91
2024-04-14T05:41:15.684Z,69.92
2024-04-14T05:41:46.470Z,69.97
2024-04-14T05:42:17.262Z,69.93
2024-04-14T05:42:48.097Z,69.78
2024-04-14T05:43:18.975Z,69.70
2024-04-14T05:43:50.132Z,69.59
2024-04-14T05:44:20.917Z,69.62
2024-04-14T05:44:51.721Z,69.63
2024-04-14T05:45:25.847Z,69.58
2024-04-14T05:45:56.704Z,69.45
2024-04-14T05:46:27.487Z,69.35
2024-04-14T05:46:58.287Z,69.47
2024-04-14T05:47:29.115Z,69.51
2024-04-14T05:48:00.012Z,69.40
2024-04-14T05:48:30.974Z,69.20
2024-04-14T05:49:17.879Z,69.10
2024-04-14T05:49:51.430Z,69.24
2024-04-14T05:50:22.342Z,69.30
2024-04-14T05:50:53.148Z,69.30
2024-04-14T05:51:23.945Z,69.36
2024-04-14T05:51:54.814Z,69.15
2024-04-14T05:52:25.631Z,68.94
2024-04-14T05:52:56.437Z,68.78
2024-04-14T05:53:27.230Z,68.69
2024-04-14T05:53:58.035Z,68.65
2024-04-14T05:54:28.825Z,68.55
2024-04-14T05:54:59.739Z,68.57
2024-04-14T05:55:30.596Z,68.61
2024-04-14T05:56:01.402Z,68.61
2024-04-14T05:56:32.205Z,68.42
2024-04-14T05:57:03.178Z,68.22
2024-04-14T05:57:34.128Z,68.09
2024-04-14T05:58:04.986Z,68.04
2024-04-14T05:58:35.816Z,68.03
2024-04-14T05:59:06.844Z,68.06
2024-04-14T05:59:37.636Z,68.06
2024-04-14T06:00:08.657Z,68.00
2024-04-14T06:00:39.652Z,67.94
2024-04-14T06:01:10.604Z,67.87
2024-04-14T06:01:41.765Z,67.93
2024-04-14T06:02:12.847Z,67.91
2024-04-14T06:02:43.717Z,67.84
2024-04-14T06:03:14.902Z,67.72
2024-04-14T06:03:46.123Z,67.66
2024-04-14T06:04:17.076Z,67.67
2024-04-14T06:04:50.084Z,67.73
2024-04-14T06:05:20.974Z,67.78
2024-04-14T06:05:51.758Z,67.74
2024-04-14T06:06:22.557Z,67.56
2024-04-14T06:06:53.389Z,67.51
2024-04-14T06:07:24.207Z,67.56
2024-04-14T06:07:55.049Z,67.56
2024-04-14T06:08:25.870Z,67.48
2024-04-14T06:08:56.671Z,67.33
2024-04-14T06:09:27.529Z,67.39
2024-04-14T06:09:58.443Z,67.38
2024-04-14T06:10:29.230Z,67.39
2024-04-14T06:11:00.099Z,67.47
2024-04-14T06:11:30.930Z,67.53
2024-04-14T06:12:01.715Z,67.53
2024-04-14T06:12:32.552Z,67.73
2024-04-14T06:13:03.473Z,67.75
2024-04-14T06:13:34.293Z,67.67
2024-04-14T06:14:05.091Z,67.57
2024-04-14T06:14:35.909Z,67.57
2024-04-14T06:15:06.828Z,67.60
2024-04-14T06:15:37.664Z,67.53
2024-04-14T06:16:08.645Z,67.46
2024-04-14T06:16:39.682Z,67.50
2024-04-14T06:17:10.555Z,67.52
2024-04-14T06:17:41.398Z,67.44
2024-04-14T06:18:12.213Z,67.32
2024-04-14T06:18:43.056Z,67.30
2024-04-14T06:19:14.537Z,67.23
2024-04-14T06:19:45.329Z,66.93
2024-04-14T06:20:16.211Z,66.83
2024-04-14T06:20:47.043Z,66.56
2024-04-14T06:21:17.853Z,66.38
2024-04-14T06:21:48.739Z,66.24
2024-04-14T06:22:19.566Z,66.18
2024-04-14T06:22:50.374Z,66.26
2024-04-14T06:23:21.815Z,66.18
2024-04-14T06:23:52.693Z,66.14
2024-04-14T06:24:23.500Z,66.15
2024-04-14T06:24:54.329Z,66.11
2024-04-14T06:25:25.147Z,65.84
2024-04-14T06:25:55.934Z,65.80
2024-04-14T06:26:26.731Z,65.67
2024-04-14T06:26:57.536Z,65.59
2024-04-14T06:27:28.383Z,65.47
2024-04-14T06:27:59.218Z,65.51
2024-04-14T06:28:31.998Z,65.42
2024-04-14T06:29:02.795Z,65.32
2024-04-14T06:29:36.309Z,65.19
2024-04-14T06:30:07.715Z,65.10
2024-04-14T06:30:38.529Z,65.20
2024-04-14T06:31:09.485Z,65.11
2024-04-14T06:31:40.314Z,64.92
2024-04-14T06:32:11.130Z,64.79
2024-04-14T06:32:42.463Z,64.66
2024-04-14T06:33:13.452Z,64.63
2024-04-14T06:33:44.421Z,64.61
2024-04-14T06:34:15.391Z,64.58
2024-04-14T06:34:46.219Z,64.43
2024-04-14T06:35:17.323Z,64.28
2024-04-14T06:35:48.119Z,64.04
2024-04-14T06:36:18.937Z,63.84
2024-04-14T06:36:49.741Z,63.78
2024-04-14T06:37:20.566Z,63.62
2024-04-14T06:37:51.362Z,63.53
2024-04-14T06:38:22.172Z,63.25
2024-04-14T06:38:54.283Z,63.08
2024-04-14T06:39:25.134Z,62.98
2024-04-14T06:39:55.958Z,62.87
2024-04-14T06:40:26.816Z,62.78
2024-04-14T06:40:58.373Z,62.69
2024-04-14T06:41:29.173Z,62.57